sensor_id;sensor_type;location;lat;lon;timestamp;pressure;altitude;pressure_sealevel;temperature;humidity
71805;BME280;59654;52.216;5.616;2022-12-18T00:00:29;102693.22;;;-5.24;96.88
71805;BME280;59654;52.216;5.616;2022-12-18T00:01:00;102696.56;;;-5.27;96.84
71805;BME280;59654;52.216;5.616;2022-12-18T00:01:37;102693.72;;;-5.31;96.48
71805;BME280;59654;52.216;5.616;2022-12-18T00:02:11;102687.44;;;-5.35;96.30
71805;BME280;59654;52.216;5.616;2022-12-18T00:02:42;102699.53;;;-5.35;96.74
71805;BME280;59654;52.216;5.616;2022-12-18T00:03:15;102689.06;;;-5.37;96.31
71805;BME280;59654;52.216;5.616;2022-12-18T00:03:48;102683.78;;;-5.38;97.21
71805;BME280;59654;52.216;5.616;2022-12-18T00:04:24;102690.75;;;-5.37;97.37
71805;BME280;59654;52.216;5.616;2022-12-18T00:04:56;102689.16;;;-5.35;97.06
71805;BME280;59654;52.216;5.616;2022-12-18T00:05:27;102691.75;;;-5.35;96.23
71805;BME280;59654;52.216;5.616;2022-12-18T00:05:58;102689.25;;;-5.34;97.09
71805;BME280;59654;52.216;5.616;2022-12-18T00:06:29;102684.84;;;-5.35;97.33
71805;BME280;59654;52.216;5.616;2022-12-18T00:07:01;102689.25;;;-5.34;97.13
71805;BME280;59654;52.216;5.616;2022-12-18T00:07:33;102681.63;;;-5.31;96.68
71805;BME280;59654;52.216;5.616;2022-12-18T00:08:03;102682.53;;;-5.30;97.45
71805;BME280;59654;52.216;5.616;2022-12-18T00:08:35;102679.13;;;-5.29;97.70
71805;BME280;59654;52.216;5.616;2022-12-18T00:09:06;102681.53;;;-5.32;97.26
71805;BME280;59654;52.216;5.616;2022-12-18T00:09:37;102681.63;;;-5.31;96.83
71805;BME280;59654;52.216;5.616;2022-12-18T00:10:08;102673.00;;;-5.30;97.17
71805;BME280;59654;52.216;5.616;2022-12-18T00:10:39;102681.84;;;-5.26;96.61
71805;BME280;59654;52.216;5.616;2022-12-18T00:11:15;102681.94;;;-5.25;96.39
71805;BME280;59654;52.216;5.616;2022-12-18T00:11:48;102675.94;;;-5.24;96.58
71805;BME280;59654;52.216;5.616;2022-12-18T00:12:18;102676.09;;;-5.21;96.57
71805;BME280;59654;52.216;5.616;2022-12-18T00:12:49;102673.50;;;-5.21;96.99
71805;BME280;59654;52.216;5.616;2022-12-18T00:13:20;102677.09;;;-5.19;96.79
71805;BME280;59654;52.216;5.616;2022-12-18T00:13:54;102678.06;;;-5.17;96.23
71805;BME280;59654;52.216;5.616;2022-12-18T00:14:26;102676.28;;;-5.18;96.45
71805;BME280;59654;52.216;5.616;2022-12-18T00:14:57;102671.25;;;-5.15;96.12
71805;BME280;59654;52.216;5.616;2022-12-18T00:15:28;102672.16;;;-5.14;96.34
71805;BME280;59654;52.216;5.616;2022-12-18T00:16:04;102668.66;;;-5.15;95.83
71805;BME280;59654;52.216;5.616;2022-12-18T00:16:37;102666.06;;;-5.15;95.85
71805;BME280;59654;52.216;5.616;2022-12-18T00:17:08;102663.38;;;-5.16;96.14
71805;BME280;59654;52.216;5.616;2022-12-18T00:17:39;102659.69;;;-5.20;95.63
71805;BME280;59654;52.216;5.616;2022-12-18T00:18:09;102657.91;;;-5.21;96.11
71805;BME280;59654;52.216;5.616;2022-12-18T00:18:41;102660.25;;;-5.25;95.54
71805;BME280;59654;52.216;5.616;2022-12-18T00:19:13;102664.22;;;-5.32;94.98
71805;BME280;59654;52.216;5.616;2022-12-18T00:19:45;102658.22;;;-5.31;96.15
71805;BME280;59654;52.216;5.616;2022-12-18T00:20:16;102664.22;;;-5.32;95.63
71805;BME280;59654;52.216;5.616;2022-12-18T00:20:51;102662.53;;;-5.31;95.91
71805;BME280;59654;52.216;5.616;2022-12-18T00:21:22;102667.63;;;-5.33;96.02
71805;BME280;59654;52.216;5.616;2022-12-18T00:21:53;102664.06;;;-5.35;95.54
71805;BME280;59654;52.216;5.616;2022-12-18T00:22:24;102665.66;;;-5.37;95.35
71805;BME280;59654;52.216;5.616;2022-12-18T00:22:55;102668.09;;;-5.40;95.96
71805;BME280;59654;52.216;5.616;2022-12-18T00:23:28;102662.09;;;-5.39;95.61
71805;BME280;59654;52.216;5.616;2022-12-18T00:23:59;102665.31;;;-5.43;96.37
71805;BME280;59654;52.216;5.616;2022-12-18T00:24:31;102664.47;;;-5.43;96.59
71805;BME280;59654;52.216;5.616;2022-12-18T00:25:02;102668.66;;;-5.45;96.23
71805;BME280;59654;52.216;5.616;2022-12-18T00:25:34;102667.50;;;-5.51;96.03
71805;BME280;59654;52.216;5.616;2022-12-18T00:26:10;102671.91;;;-5.50;96.23
71805;BME280;59654;52.216;5.616;2022-12-18T00:26:42;102670.28;;;-5.48;96.83
71805;BME280;59654;52.216;5.616;2022-12-18T00:27:13;102672.78;;;-5.49;96.13
71805;BME280;59654;52.216;5.616;2022-12-18T00:27:44;102674.50;;;-5.50;97.02
71805;BME280;59654;52.216;5.616;2022-12-18T00:28:14;102668.41;;;-5.50;97.16
71805;BME280;59654;52.216;5.616;2022-12-18T00:28:46;102666.78;;;-5.48;97.05
71805;BME280;59654;52.216;5.616;2022-12-18T00:29:17;102668.56;;;-5.47;96.70
71805;BME280;59654;52.216;5.616;2022-12-18T00:29:48;102666.78;;;-5.48;97.07
71805;BME280;59654;52.216;5.616;2022-12-18T00:30:20;102669.47;;;-5.47;96.82
71805;BME280;59654;52.216;5.616;2022-12-18T00:30:50;102663.28;;;-5.49;97.12
71805;BME280;59654;52.216;5.616;2022-12-18T00:31:24;102656.22;;;-5.51;96.82
71805;BME280;59654;52.216;5.616;2022-12-18T00:31:57;102666.44;;;-5.54;96.89
71805;BME280;59654;52.216;5.616;2022-12-18T00:32:28;102662.03;;;-5.55;97.08
71805;BME280;59654;52.216;5.616;2022-12-18T00:32:59;102656.94;;;-5.54;96.74
71805;BME280;59654;52.216;5.616;2022-12-18T00:33:30;102657.66;;;-5.56;96.50
71805;BME280;59654;52.216;5.616;2022-12-18T00:34:02;102657.66;;;-5.56;97.37
71805;BME280;59654;52.216;5.616;2022-12-18T00:34:33;102650.66;;;-5.57;97.50
71805;BME280;59654;52.216;5.616;2022-12-18T00:35:05;102655.84;;;-5.57;97.22
71805;BME280;59654;52.216;5.616;2022-12-18T00:35:36;102656.53;;;-5.61;97.01
71805;BME280;59654;52.216;5.616;2022-12-18T00:36:11;102657.25;;;-5.64;96.98
71805;BME280;59654;52.216;5.616;2022-12-18T00:36:47;102648.28;;;-5.69;96.99
71805;BME280;59654;52.216;5.616;2022-12-18T00:37:19;102649.97;;;-5.69;97.81
71805;BME280;59654;52.216;5.616;2022-12-18T00:37:49;102646.47;;;-5.70;97.69
71805;BME280;59654;52.216;5.616;2022-12-18T00:38:20;102649.16;;;-5.68;98.21
71805;BME280;59654;52.216;5.616;2022-12-18T00:38:53;102655.34;;;-5.66;97.44
71805;BME280;59654;52.216;5.616;2022-12-18T00:39:25;102654.63;;;-5.64;97.41
71805;BME280;59654;52.216;5.616;2022-12-18T00:39:56;102653.84;;;-5.63;97.89
71805;BME280;59654;52.216;5.616;2022-12-18T00:40:27;102652.03;;;-5.64;98.29
71805;BME280;59654;52.216;5.616;2022-12-18T00:40:58;102657.94;;;-5.66;96.98
71805;BME280;59654;52.216;5.616;2022-12-18T00:41:28;102660.47;;;-5.68;97.66
71805;BME280;59654;52.216;5.616;2022-12-18T00:42:18;102662.88;;;-5.71;98.14
71805;BME280;59654;52.216;5.616;2022-12-18T00:43:07;102666.09;;;-5.75;97.31
71805;BME280;59654;52.216;5.616;2022-12-18T00:43:39;102660.09;;;-5.74;97.97
71805;BME280;59654;52.216;5.616;2022-12-18T00:44:13;102656.78;;;-5.71;99.06
71805;BME280;59654;52.216;5.616;2022-12-18T00:44:46;102661.25;;;-5.69;98.19
71805;BME280;59654;52.216;5.616;2022-12-18T00:45:17;102657.06;;;-5.67;98.81
71805;BME280;59654;52.216;5.616;2022-12-18T00:45:47;102666.81;;;-5.63;98.10
71805;BME280;59654;52.216;5.616;2022-12-18T00:46:19;102657.31;;;-5.62;98.69
71805;BME280;59654;52.216;5.616;2022-12-18T00:46:52;102659.75;;;-5.65;97.92
71805;BME280;59654;52.216;5.616;2022-12-18T00:47:23;102660.47;;;-5.68;98.23
71805;BME280;59654;52.216;5.616;2022-12-18T00:47:54;102659.38;;;-5.71;98.34
71805;BME280;59654;52.216;5.616;2022-12-18T00:48:25;102658.41;;;-5.73;98.16
71805;BME280;59654;52.216;5.616;2022-12-18T00:48:57;102661.75;;;-5.76;97.98
71805;BME280;59654;52.216;5.616;2022-12-18T00:49:28;102653.06;;;-5.76;98.52
71805;BME280;59654;52.216;5.616;2022-12-18T00:49:59;102653.78;;;-5.79;97.95
71805;BME280;59654;52.216;5.616;2022-12-18T00:50:30;102655.28;;;-5.83;97.56
71805;BME280;59654;52.216;5.616;2022-12-18T00:51:01;102649.19;;;-5.83;98.71
71805;BME280;59654;52.216;5.616;2022-12-18T00:51:32;102656.09;;;-5.84;98.93
71805;BME280;59654;52.216;5.616;2022-12-18T00:52:03;102655.38;;;-5.81;99.30
71805;BME280;59654;52.216;5.616;2022-12-18T00:52:34;102651.00;;;-5.82;99.06
71805;BME280;59654;52.216;5.616;2022-12-18T00:53:06;102652.97;;;-5.78;99.11
71805;BME280;59654;52.216;5.616;2022-12-18T00:53:37;102654.66;;;-5.78;98.68
71805;BME280;59654;52.216;5.616;2022-12-18T00:54:08;102655.28;;;-5.83;99.03
71805;BME280;59654;52.216;5.616;2022-12-18T00:54:39;102657.69;;;-5.86;98.16
71805;BME280;59654;52.216;5.616;2022-12-18T00:55:09;102663.78;;;-5.85;98.63
71805;BME280;59654;52.216;5.616;2022-12-18T00:55:41;102662.19;;;-5.83;99.38
71805;BME280;59654;52.216;5.616;2022-12-18T00:56:12;102666.75;;;-5.79;99.79
71805;BME280;59654;52.216;5.616;2022-12-18T00:56:43;102667.00;;;-5.74;100.00
71805;BME280;59654;52.216;5.616;2022-12-18T00:57:14;102666.03;;;-5.76;98.80
71805;BME280;59654;52.216;5.616;2022-12-18T00:57:45;102664.47;;;-5.73;98.39
71805;BME280;59654;52.216;5.616;2022-12-18T00:58:16;102668.06;;;-5.71;98.42
71805;BME280;59654;52.216;5.616;2022-12-18T00:58:49;102670.66;;;-5.71;99.22
71805;BME280;59654;52.216;5.616;2022-12-18T00:59:20;102674.06;;;-5.72;98.33
71805;BME280;59654;52.216;5.616;2022-12-18T00:59:51;102673.25;;;-5.71;98.21
71805;BME280;59654;52.216;5.616;2022-12-18T01:00:22;102672.72;;;-5.65;99.21
71805;BME280;59654;52.216;5.616;2022-12-18T01:00:53;102672.09;;;-5.61;99.03
71805;BME280;59654;52.216;5.616;2022-12-18T01:01:24;102674.84;;;-5.58;98.79
71805;BME280;59654;52.216;5.616;2022-12-18T01:01:55;102675.84;;;-5.56;99.46
71805;BME280;59654;52.216;5.616;2022-12-18T01:02:26;102677.72;;;-5.54;98.95
71805;BME280;59654;52.216;5.616;2022-12-18T01:02:57;102676.91;;;-5.53;98.36
71805;BME280;59654;52.216;5.616;2022-12-18T01:03:28;102670.00;;;-5.52;97.99
71805;BME280;59654;52.216;5.616;2022-12-18T01:04:02;102668.31;;;-5.52;97.98
71805;BME280;59654;52.216;5.616;2022-12-18T01:04:34;102663.91;;;-5.53;97.61
71805;BME280;59654;52.216;5.616;2022-12-18T01:05:05;102664.81;;;-5.52;97.86
71805;BME280;59654;52.216;5.616;2022-12-18T01:05:40;102666.59;;;-5.51;96.53
71805;BME280;59654;52.216;5.616;2022-12-18T01:06:13;102667.31;;;-5.54;97.46
71805;BME280;59654;52.216;5.616;2022-12-18T01:06:45;102663.03;;;-5.53;97.12
71805;BME280;59654;52.216;5.616;2022-12-18T01:07:16;102659.53;;;-5.54;97.59
71805;BME280;59654;52.216;5.616;2022-12-18T01:07:47;102670.72;;;-5.55;97.37
71805;BME280;59654;52.216;5.616;2022-12-18T01:08:18;102661.06;;;-5.57;97.46
71805;BME280;59654;52.216;5.616;2022-12-18T01:08:49;102669.84;;;-5.55;97.63
71805;BME280;59654;52.216;5.616;2022-12-18T01:09:20;102661.22;;;-5.54;97.99
71805;BME280;59654;52.216;5.616;2022-12-18T01:09:51;102663.03;;;-5.53;97.18
71805;BME280;59654;52.216;5.616;2022-12-18T01:10:23;102664.00;;;-5.51;97.19
71805;BME280;59654;52.216;5.616;2022-12-18T01:10:54;102671.81;;;-5.51;97.58
71805;BME280;59654;52.216;5.616;2022-12-18T01:11:25;102660.44;;;-5.53;96.49
71805;BME280;59654;52.216;5.616;2022-12-18T01:11:56;102662.84;;;-5.56;96.64
71805;BME280;59654;52.216;5.616;2022-12-18T01:12:27;102656.53;;;-5.61;97.13
71805;BME280;59654;52.216;5.616;2022-12-18T01:12:57;102658.75;;;-5.67;96.67
71805;BME280;59654;52.216;5.616;2022-12-18T01:13:28;102662.16;;;-5.68;96.81
71805;BME280;59654;52.216;5.616;2022-12-18T01:13:59;102664.56;;;-5.71;97.91
71805;BME280;59654;52.216;5.616;2022-12-18T01:14:30;102657.59;;;-5.72;96.83
71805;BME280;59654;52.216;5.616;2022-12-18T01:15:02;102657.34;;;-5.77;96.86
71805;BME280;59654;52.216;5.616;2022-12-18T01:15:33;102648.66;;;-5.77;97.83
71805;BME280;59654;52.216;5.616;2022-12-18T01:16:05;102647.69;;;-5.79;97.36
71805;BME280;59654;52.216;5.616;2022-12-18T01:16:37;102649.47;;;-5.78;97.61
71805;BME280;59654;52.216;5.616;2022-12-18T01:17:09;102657.41;;;-5.75;97.65
71805;BME280;59654;52.216;5.616;2022-12-18T01:17:40;102653.09;;;-5.75;98.12
71805;BME280;59654;52.216;5.616;2022-12-18T01:18:11;102653.09;;;-5.75;97.62
71805;BME280;59654;52.216;5.616;2022-12-18T01:18:42;102657.50;;;-5.74;98.08
71805;BME280;59654;52.216;5.616;2022-12-18T01:19:13;102652.41;;;-5.72;97.60
71805;BME280;59654;52.216;5.616;2022-12-18T01:19:44;102652.41;;;-5.72;98.47
71805;BME280;59654;52.216;5.616;2022-12-18T01:20:17;102656.97;;;-5.68;97.94
71805;BME280;59654;52.216;5.616;2022-12-18T01:20:48;102656.06;;;-5.69;98.32
71805;BME280;59654;52.216;5.616;2022-12-18T01:21:19;102656.97;;;-5.68;98.22
71805;BME280;59654;52.216;5.616;2022-12-18T01:21:50;102651.69;;;-5.70;97.77
71805;BME280;59654;52.216;5.616;2022-12-18T01:22:20;102651.78;;;-5.68;97.71
71805;BME280;59654;52.216;5.616;2022-12-18T01:22:51;102656.16;;;-5.67;97.53
71805;BME280;59654;52.216;5.616;2022-12-18T01:23:23;102658.66;;;-5.69;97.03
71805;BME280;59654;52.216;5.616;2022-12-18T01:23:57;102655.09;;;-5.71;97.23
71805;BME280;59654;52.216;5.616;2022-12-18T01:24:28;102649.16;;;-5.68;97.14
71805;BME280;59654;52.216;5.616;2022-12-18T01:24:59;102656.06;;;-5.69;97.70
71805;BME280;59654;52.216;5.616;2022-12-18T01:25:31;102658.75;;;-5.67;96.92
71805;BME280;59654;52.216;5.616;2022-12-18T01:26:09;102661.63;;;-5.63;97.48
71805;BME280;59654;52.216;5.616;2022-12-18T01:26:42;102654.00;;;-5.60;97.14
71805;BME280;59654;52.216;5.616;2022-12-18T01:27:13;102661.72;;;-5.61;97.63
71805;BME280;59654;52.216;5.616;2022-12-18T01:27:44;102662.59;;;-5.61;97.37
71805;BME280;59654;52.216;5.616;2022-12-18T01:28:15;102664.31;;;-5.61;96.61
71805;BME280;59654;52.216;5.616;2022-12-18T01:28:46;102659.13;;;-5.61;97.11
71805;BME280;59654;52.216;5.616;2022-12-18T01:29:16;102657.47;;;-5.59;95.99
71805;BME280;59654;52.216;5.616;2022-12-18T01:29:49;102659.22;;;-5.60;95.88
71805;BME280;59654;52.216;5.616;2022-12-18T01:30:19;102660.91;;;-5.60;96.89
71805;BME280;59654;52.216;5.616;2022-12-18T01:30:50;102658.13;;;-5.63;95.98
71805;BME280;59654;52.216;5.616;2022-12-18T01:31:30;102655.53;;;-5.63;95.63
71805;BME280;59654;52.216;5.616;2022-12-18T01:32:02;102653.03;;;-5.62;96.42
71805;BME280;59654;52.216;5.616;2022-12-18T01:32:34;102652.13;;;-5.62;95.79
71805;BME280;59654;52.216;5.616;2022-12-18T01:33:06;102655.53;;;-5.63;95.92
71805;BME280;59654;52.216;5.616;2022-12-18T01:33:37;102658.94;;;-5.64;96.15
71805;BME280;59654;52.216;5.616;2022-12-18T01:34:09;102657.94;;;-5.66;94.92
71805;BME280;59654;52.216;5.616;2022-12-18T01:34:40;102665.56;;;-5.69;94.73
71805;BME280;59654;52.216;5.616;2022-12-18T01:35:11;102665.38;;;-5.72;94.79
71805;BME280;59654;52.216;5.616;2022-12-18T01:35:42;102665.38;;;-5.72;94.75
71805;BME280;59654;52.216;5.616;2022-12-18T01:36:34;102668.78;;;-5.73;94.91
71805;BME280;59654;52.216;5.616;2022-12-18T01:37:06;102666.19;;;-5.73;94.92
71805;BME280;59654;52.216;5.616;2022-12-18T01:37:41;102667.97;;;-5.72;95.54
71805;BME280;59654;52.216;5.616;2022-12-18T01:38:11;102666.28;;;-5.72;95.99
71805;BME280;59654;52.216;5.616;2022-12-18T01:38:42;102668.97;;;-5.70;95.30
71805;BME280;59654;52.216;5.616;2022-12-18T01:39:15;102668.88;;;-5.72;95.16
71805;BME280;59654;52.216;5.616;2022-12-18T01:39:46;102665.38;;;-5.72;95.51
71805;BME280;59654;52.216;5.616;2022-12-18T01:40:17;102660.19;;;-5.72;94.53
71805;BME280;59654;52.216;5.616;2022-12-18T01:40:48;102670.66;;;-5.71;94.73
71805;BME280;59654;52.216;5.616;2022-12-18T01:41:24;102665.38;;;-5.72;94.29
71805;BME280;59654;52.216;5.616;2022-12-18T01:42:17;102665.38;;;-5.72;94.78
71805;BME280;59654;52.216;5.616;2022-12-18T01:42:52;102667.97;;;-5.72;95.14
71805;BME280;59654;52.216;5.616;2022-12-18T01:43:50;102667.00;;;-5.74;94.66
71805;BME280;59654;52.216;5.616;2022-12-18T01:45:35;102667.88;;;-5.74;93.75
71805;BME280;59654;52.216;5.616;2022-12-18T01:46:08;102664.47;;;-5.73;93.76
71805;BME280;59654;52.216;5.616;2022-12-18T01:46:39;102669.78;;;-5.71;94.60
71805;BME280;59654;52.216;5.616;2022-12-18T01:47:20;102674.16;;;-5.70;93.67
71805;BME280;59654;52.216;5.616;2022-12-18T01:48:00;102666.28;;;-5.72;93.64
71805;BME280;59654;52.216;5.616;2022-12-18T01:48:33;102667.88;;;-5.74;93.31
71805;BME280;59654;52.216;5.616;2022-12-18T01:49:04;102666.19;;;-5.73;93.42
71805;BME280;59654;52.216;5.616;2022-12-18T01:49:35;102679.91;;;-5.76;92.67
71805;BME280;59654;52.216;5.616;2022-12-18T01:50:43;102668.53;;;-5.78;93.30
71805;BME280;59654;52.216;5.616;2022-12-18T01:51:15;102678.75;;;-5.81;92.47
71805;BME280;59654;52.216;5.616;2022-12-18T01:51:46;102670.69;;;-5.86;92.43
71805;BME280;59654;52.216;5.616;2022-12-18T01:52:18;102674.81;;;-5.89;93.08
71805;BME280;59654;52.216;5.616;2022-12-18T01:53:02;102674.72;;;-5.91;93.49
71805;BME280;59654;52.216;5.616;2022-12-18T01:53:39;102674.72;;;-5.91;93.07
71805;BME280;59654;52.216;5.616;2022-12-18T01:54:11;102683.31;;;-5.92;93.50
71805;BME280;59654;52.216;5.616;2022-12-18T01:54:43;102683.31;;;-5.92;93.29
71805;BME280;59654;52.216;5.616;2022-12-18T01:55:18;102679.66;;;-5.95;92.81
71805;BME280;59654;52.216;5.616;2022-12-18T01:55:57;102686.66;;;-5.94;93.85
71805;BME280;59654;52.216;5.616;2022-12-18T01:56:29;102686.75;;;-5.93;93.68
71805;BME280;59654;52.216;5.616;2022-12-18T01:57:00;102684.19;;;-5.91;93.90
71805;BME280;59654;52.216;5.616;2022-12-18T01:57:32;102677.31;;;-5.91;92.82
71805;BME280;59654;52.216;5.616;2022-12-18T01:58:03;102687.53;;;-5.94;92.95
71805;BME280;59654;52.216;5.616;2022-12-18T01:59:35;102688.50;;;-5.92;92.79
71805;BME280;59654;52.216;5.616;2022-12-18T02:00:12;102686.00;;;-5.90;93.54
71805;BME280;59654;52.216;5.616;2022-12-18T02:00:45;102686.78;;;-5.91;91.89
71805;BME280;59654;52.216;5.616;2022-12-18T02:01:16;102688.44;;;-5.93;92.60
71805;BME280;59654;52.216;5.616;2022-12-18T02:01:47;102685.75;;;-5.95;92.07
71805;BME280;59654;52.216;5.616;2022-12-18T02:02:21;102683.16;;;-5.95;91.83
71805;BME280;59654;52.216;5.616;2022-12-18T02:02:53;102684.75;;;-5.97;92.46
71805;BME280;59654;52.216;5.616;2022-12-18T02:03:24;102692.47;;;-5.98;92.29
71805;BME280;59654;52.216;5.616;2022-12-18T02:03:54;102682.88;;;-5.99;91.23
71805;BME280;59654;52.216;5.616;2022-12-18T02:04:28;102685.19;;;-6.04;92.09
71805;BME280;59654;52.216;5.616;2022-12-18T02:05:00;102685.81;;;-6.08;91.79
71805;BME280;59654;52.216;5.616;2022-12-18T02:07:06;102691.38;;;-6.17;92.08
71805;BME280;59654;52.216;5.616;2022-12-18T02:09:46;102684.84;;;-6.25;92.12
71805;BME280;59654;52.216;5.616;2022-12-18T02:10:30;102679.56;;;-6.26;93.10
71805;BME280;59654;52.216;5.616;2022-12-18T02:11:13;102689.03;;;-6.27;92.77
71805;BME280;59654;52.216;5.616;2022-12-18T02:11:53;102691.53;;;-6.28;92.32
71805;BME280;59654;52.216;5.616;2022-12-18T02:14:40;102702.44;;;-6.34;93.15
71805;BME280;59654;52.216;5.616;2022-12-18T02:15:40;102701.63;;;-6.33;91.99
71805;BME280;59654;52.216;5.616;2022-12-18T02:16:24;102701.44;;;-6.36;93.21
71805;BME280;59654;52.216;5.616;2022-12-18T02:17:52;102702.25;;;-6.37;93.04
71805;BME280;59654;52.216;5.616;2022-12-18T02:18:32;102699.47;;;-6.40;92.87
71805;BME280;59654;52.216;5.616;2022-12-18T02:22:26;102699.81;;;-6.48;92.80
71805;BME280;59654;52.216;5.616;2022-12-18T02:26:49;102699.53;;;-6.53;93.69
71805;BME280;59654;52.216;5.616;2022-12-18T02:27:24;102697.13;;;-6.50;93.05
71805;BME280;59654;52.216;5.616;2022-12-18T02:28:00;102701.53;;;-6.49;92.81
71805;BME280;59654;52.216;5.616;2022-12-18T02:28:41;102697.13;;;-6.50;93.08
71805;BME280;59654;52.216;5.616;2022-12-18T02:29:55;102697.13;;;-6.50;92.26
71805;BME280;59654;52.216;5.616;2022-12-18T02:30:32;102689.34;;;-6.50;92.01
71805;BME280;59654;52.216;5.616;2022-12-18T02:31:07;102697.13;;;-6.50;91.87
71805;BME280;59654;52.216;5.616;2022-12-18T02:31:51;102692.84;;;-6.49;92.78
71805;BME280;59654;52.216;5.616;2022-12-18T02:32:29;102690.06;;;-6.53;92.51
71805;BME280;59654;52.216;5.616;2022-12-18T02:33:06;102693.63;;;-6.50;92.70
71805;BME280;59654;52.216;5.616;2022-12-18T02:33:41;102690.94;;;-6.52;92.46
71805;BME280;59654;52.216;5.616;2022-12-18T02:34:16;102695.16;;;-6.54;91.24
71805;BME280;59654;52.216;5.616;2022-12-18T02:34:51;102693.34;;;-6.55;92.10
71805;BME280;59654;52.216;5.616;2022-12-18T02:35:29;102697.63;;;-6.56;91.45
71805;BME280;59654;52.216;5.616;2022-12-18T02:36:05;102689.06;;;-6.55;91.72
71805;BME280;59654;52.216;5.616;2022-12-18T02:36:41;102692.47;;;-6.56;92.37
71805;BME280;59654;52.216;5.616;2022-12-18T02:37:18;102694.16;;;-6.56;91.43
71805;BME280;59654;52.216;5.616;2022-12-18T02:37:53;102693.25;;;-6.57;92.50
71805;BME280;59654;52.216;5.616;2022-12-18T02:38:26;102688.06;;;-6.57;92.08
71805;BME280;59654;52.216;5.616;2022-12-18T02:39:01;102690.66;;;-6.57;91.59
71805;BME280;59654;52.216;5.616;2022-12-18T02:39:35;102693.19;;;-6.58;92.48
71805;BME280;59654;52.216;5.616;2022-12-18T02:40:11;102694.00;;;-6.59;91.61
71805;BME280;59654;52.216;5.616;2022-12-18T02:40:45;102692.19;;;-6.60;92.58
71805;BME280;59654;52.216;5.616;2022-12-18T02:41:23;102684.31;;;-6.62;92.09
71805;BME280;59654;52.216;5.616;2022-12-18T02:41:56;102692.91;;;-6.63;91.55
71805;BME280;59654;52.216;5.616;2022-12-18T02:42:29;102693.00;;;-6.61;92.06
71805;BME280;59654;52.216;5.616;2022-12-18T02:43:12;102682.53;;;-6.63;91.58
71805;BME280;59654;52.216;5.616;2022-12-18T02:43:49;102682.53;;;-6.63;92.22
71805;BME280;59654;52.216;5.616;2022-12-18T02:44:20;102681.72;;;-6.62;92.18
71805;BME280;59654;52.216;5.616;2022-12-18T02:44:51;102680.94;;;-6.61;91.68
71805;BME280;59654;52.216;5.616;2022-12-18T02:45:27;102678.34;;;-6.61;91.85
71805;BME280;59654;52.216;5.616;2022-12-18T02:46:00;102681.72;;;-6.62;91.47
71805;BME280;59654;52.216;5.616;2022-12-18T02:47:21;102675.94;;;-6.58;91.16
71805;BME280;59654;52.216;5.616;2022-12-18T02:47:56;102672.34;;;-6.60;91.89
71805;BME280;59654;52.216;5.616;2022-12-18T02:48:33;102675.09;;;-6.57;91.45
71805;BME280;59654;52.216;5.616;2022-12-18T02:49:29;102671.69;;;-6.56;91.88
71805;BME280;59654;52.216;5.616;2022-12-18T02:50:20;102668.75;;;-6.62;91.26
71805;BME280;59654;52.216;5.616;2022-12-18T02:51:23;102669.47;;;-6.64;91.46
71805;BME280;59654;52.216;5.616;2022-12-18T02:54:13;102658.81;;;-6.69;90.32
71805;BME280;59654;52.216;5.616;2022-12-18T02:56:20;102657.72;;;-6.72;91.06
71805;BME280;59654;52.216;5.616;2022-12-18T02:57:09;102651.63;;;-6.73;91.39
71805;BME280;59654;52.216;5.616;2022-12-18T02:58:04;102660.31;;;-6.72;91.50
71805;BME280;59654;52.216;5.616;2022-12-18T02:59:00;102659.41;;;-6.73;91.25
71805;BME280;59654;52.216;5.616;2022-12-18T02:59:50;102654.06;;;-6.76;91.12
71805;BME280;59654;52.216;5.616;2022-12-18T03:03:39;102664.78;;;-6.70;91.60
71805;BME280;59654;52.216;5.616;2022-12-18T03:04:30;102657.91;;;-6.69;90.36
71805;BME280;59654;52.216;5.616;2022-12-18T03:05:19;102664.09;;;-6.67;91.35
71805;BME280;59654;52.216;5.616;2022-12-18T03:06:14;102660.69;;;-6.66;91.23
71805;BME280;59654;52.216;5.616;2022-12-18T03:07:22;102661.50;;;-6.67;89.86
71805;BME280;59654;52.216;5.616;2022-12-18T03:08:08;102664.00;;;-6.69;89.30
71805;BME280;59654;52.216;5.616;2022-12-18T03:08:51;102660.59;;;-6.68;90.00
71805;BME280;59654;52.216;5.616;2022-12-18T03:09:38;102651.03;;;-6.69;89.62
71805;BME280;59654;52.216;5.616;2022-12-18T03:10:17;102656.13;;;-6.70;90.19
71805;BME280;59654;52.216;5.616;2022-12-18T03:11:07;102656.22;;;-6.69;89.50
71805;BME280;59654;52.216;5.616;2022-12-18T03:11:46;102652.63;;;-6.71;89.62
71805;BME280;59654;52.216;5.616;2022-12-18T03:12:47;102649.88;;;-6.74;89.53
71805;BME280;59654;52.216;5.616;2022-12-18T03:14:20;102650.56;;;-6.76;89.38
71805;BME280;59654;52.216;5.616;2022-12-18T03:15:09;102653.06;;;-6.78;89.86
71805;BME280;59654;52.216;5.616;2022-12-18T03:15:52;102646.88;;;-6.80;89.95
71805;BME280;59654;52.216;5.616;2022-12-18T03:16:30;102648.50;;;-6.82;89.33
71805;BME280;59654;52.216;5.616;2022-12-18T03:17:03;102650.09;;;-6.84;89.63
71805;BME280;59654;52.216;5.616;2022-12-18T03:17:41;102645.81;;;-6.83;88.76
71805;BME280;59654;52.216;5.616;2022-12-18T03:18:22;102648.09;;;-6.88;90.15
71805;BME280;59654;52.216;5.616;2022-12-18T03:19:01;102651.50;;;-6.89;89.35
71805;BME280;59654;52.216;5.616;2022-12-18T03:19:37;102644.44;;;-6.92;89.77
71805;BME280;59654;52.216;5.616;2022-12-18T03:20:15;102645.25;;;-6.93;90.24
71805;BME280;59654;52.216;5.616;2022-12-18T03:20:51;102646.06;;;-6.94;90.30
71805;BME280;59654;52.216;5.616;2022-12-18T03:21:38;102640.56;;;-6.98;89.38
71805;BME280;59654;52.216;5.616;2022-12-18T03:22:16;102634.59;;;-6.97;89.81
71805;BME280;59654;52.216;5.616;2022-12-18T03:23:00;102643.97;;;-6.99;90.21
71805;BME280;59654;52.216;5.616;2022-12-18T03:23:40;102635.19;;;-7.01;89.85
71805;BME280;59654;52.216;5.616;2022-12-18T03:24:19;102642.97;;;-7.01;90.09
71805;BME280;59654;52.216;5.616;2022-12-18T03:24:56;102635.91;;;-7.04;89.66
71805;BME280;59654;52.216;5.616;2022-12-18T03:25:31;102641.88;;;-7.05;90.46
71805;BME280;59654;52.216;5.616;2022-12-18T03:26:09;102642.59;;;-7.07;89.90
71805;BME280;59654;52.216;5.616;2022-12-18T03:26:47;102640.03;;;-7.07;89.92
71805;BME280;59654;52.216;5.616;2022-12-18T03:27:24;102647.69;;;-7.09;90.18